sensor_id;sensor_type;location;lat;lon;timestamp;temperature;humidity
52231;DHT22;38192;50.102;19.884;2022-07-21T00:01:32;20.00;99.90
52231;DHT22;38192;50.102;19.884;2022-07-21T00:03:58;20.00;99.90
52231;DHT22;38192;50.102;19.884;2022-07-21T00:06:24;19.90;99.90
52231;DHT22;38192;50.102;19.884;2022-07-21T00:08:50;19.90;99.90
52231;DHT22;38192;50.102;19.884;2022-07-21T00:11:15;19.90;99.90
52231;DHT22;38192;50.102;19.884;2022-07-21T00:13:41;19.80;99.90
52231;DHT22;38192;50.102;19.884;2022-07-21T00:16:07;19.80;99.90
52231;DHT22;38192;50.102;19.884;2022-07-21T00:18:33;19.80;99.90
52231;DHT22;38192;50.102;19.884;2022-07-21T00:20:58;19.80;99.90
52231;DHT22;38192;50.102;19.884;2022-07-21T00:23:25;19.80;99.90
52231;DHT22;38192;50.102;19.884;2022-07-21T00:25:51;19.80;99.90
52231;DHT22;38192;50.102;19.884;2022-07-21T00:28:17;19.70;99.90
52231;DHT22;38192;50.102;19.884;2022-07-21T00:30:43;19.70;99.90
52231;DHT22;38192;50.102;19.884;2022-07-21T00:33:09;19.70;99.90
52231;DHT22;38192;50.102;19.884;2022-07-21T00:35:35;19.70;99.90
52231;DHT22;38192;50.102;19.884;2022-07-21T00:38:01;19.70;99.90
52231;DHT22;38192;50.102;19.884;2022-07-21T00:40:26;19.70;99.90
52231;DHT22;38192;50.102;19.884;2022-07-21T00:42:52;19.70;99.90
52231;DHT22;38192;50.102;19.884;2022-07-21T00:45:18;19.70;99.90
52231;DHT22;38192;50.102;19.884;2022-07-21T00:47:44;19.60;99.90
52231;DHT22;38192;50.102;19.884;2022-07-21T00:50:17;19.60;99.90
52231;DHT22;38192;50.102;19.884;2022-07-21T00:52:43;19.60;99.90
52231;DHT22;38192;50.102;19.884;2022-07-21T00:55:13;19.60;99.90
52231;DHT22;38192;50.102;19.884;2022-07-21T00:57:39;19.50;99.90
52231;DHT22;38192;50.102;19.884;2022-07-21T01:00:06;19.50;99.90
52231;DHT22;38192;50.102;19.884;2022-07-21T01:02:33;19.50;99.90
52231;DHT22;38192;50.102;19.884;2022-07-21T01:05:05;19.50;99.90
52231;DHT22;38192;50.102;19.884;2022-07-21T01:07:31;19.50;99.90
52231;DHT22;38192;50.102;19.884;2022-07-21T01:09:57;19.50;99.90
52231;DHT22;38192;50.102;19.884;2022-07-21T01:12:23;19.50;99.90
52231;DHT22;38192;50.102;19.884;2022-07-21T01:14:49;19.50;99.90
52231;DHT22;38192;50.102;19.884;2022-07-21T01:17:14;19.50;99.90
52231;DHT22;38192;50.102;19.884;2022-07-21T01:19:40;19.50;99.90
52231;DHT22;38192;50.102;19.884;2022-07-21T01:22:06;19.50;99.90
52231;DHT22;38192;50.102;19.884;2022-07-21T01:24:32;19.50;99.90
52231;DHT22;38192;50.102;19.884;2022-07-21T01:26:58;19.50;99.90
52231;DHT22;38192;50.102;19.884;2022-07-21T01:29:23;19.40;99.90
52231;DHT22;38192;50.102;19.884;2022-07-21T01:31:49;19.40;99.90
52231;DHT22;38192;50.102;19.884;2022-07-21T01:34:15;19.40;99.90
52231;DHT22;38192;50.102;19.884;2022-07-21T01:36:41;19.30;99.90
52231;DHT22;38192;50.102;19.884;2022-07-21T01:39:07;19.30;99.90
52231;DHT22;38192;50.102;19.884;2022-07-21T01:41:51;19.30;99.90
52231;DHT22;38192;50.102;19.884;2022-07-21T01:44:17;19.30;99.90
52231;DHT22;38192;50.102;19.884;2022-07-21T01:46:44;19.20;99.90
52231;DHT22;38192;50.102;19.884;2022-07-21T01:49:10;19.20;99.90
52231;DHT22;38192;50.102;19.884;2022-07-21T01:51:36;19.20;99.90
52231;DHT22;38192;50.102;19.884;2022-07-21T01:54:03;19.20;99.90
52231;DHT22;38192;50.102;19.884;2022-07-21T01:56:28;19.20;99.90
52231;DHT22;38192;50.102;19.884;2022-07-21T01:58:55;19.20;99.90
52231;DHT22;38192;50.102;19.884;2022-07-21T02:01:21;19.10;99.90
52231;DHT22;38192;50.102;19.884;2022-07-21T02:03:48;19.10;99.90
52231;DHT22;38192;50.102;19.884;2022-07-21T02:06:14;19.10;99.90
52231;DHT22;38192;50.102;19.884;2022-07-21T02:08:40;19.00;99.90
52231;DHT22;38192;50.102;19.884;2022-07-21T02:11:07;19.00;99.90
52231;DHT22;38192;50.102;19.884;2022-07-21T02:13:33;19.00;99.90
52231;DHT22;38192;50.102;19.884;2022-07-21T02:15:59;18.90;99.90
52231;DHT22;38192;50.102;19.884;2022-07-21T02:18:25;18.90;99.90
52231;DHT22;38192;50.102;19.884;2022-07-21T02:20:51;18.80;99.90
52231;DHT22;38192;50.102;19.884;2022-07-21T02:23:17;18.70;99.90
52231;DHT22;38192;50.102;19.884;2022-07-21T02:25:43;18.70;99.90
52231;DHT22;38192;50.102;19.884;2022-07-21T02:28:09;18.70;99.90
52231;DHT22;38192;50.102;19.884;2022-07-21T02:30:35;18.70;99.90
52231;DHT22;38192;50.102;19.884;2022-07-21T02:33:01;18.60;99.90
52231;DHT22;38192;50.102;19.884;2022-07-21T02:35:26;18.60;99.90
52231;DHT22;38192;50.102;19.884;2022-07-21T02:37:52;18.60;99.90
52231;DHT22;38192;50.102;19.884;2022-07-21T02:40:18;18.50;99.90
52231;DHT22;38192;50.102;19.884;2022-07-21T02:42:44;18.50;99.90
52231;DHT22;38192;50.102;19.884;2022-07-21T02:45:10;18.50;99.90
52231;DHT22;38192;50.102;19.884;2022-07-21T02:47:52;18.50;99.90
52231;DHT22;38192;50.102;19.884;2022-07-21T02:50:19;18.50;99.90
52231;DHT22;38192;50.102;19.884;2022-07-21T02:52:45;18.40;99.90
52231;DHT22;38192;50.102;19.884;2022-07-21T02:55:11;18.30;99.90
52231;DHT22;38192;50.102;19.884;2022-07-21T02:57:37;18.40;99.90
52231;DHT22;38192;50.102;19.884;2022-07-21T03:00:06;18.30;99.90
52231;DHT22;38192;50.102;19.884;2022-07-21T03:02:32;18.20;99.90
52231;DHT22;38192;50.102;19.884;2022-07-21T03:04:58;18.20;99.90
52231;DHT22;38192;50.102;19.884;2022-07-21T03:07:24;18.20;99.90
52231;DHT22;38192;50.102;19.884;2022-07-21T03:09:50;18.20;99.90
52231;DHT22;38192;50.102;19.884;2022-07-21T03:12:16;18.20;99.90
52231;DHT22;38192;50.102;19.884;2022-07-21T03:14:41;18.20;99.90
52231;DHT22;38192;50.102;19.884;2022-07-21T03:17:07;18.20;99.90
52231;DHT22;38192;50.102;19.884;2022-07-21T03:19:33;18.10;99.90
52231;DHT22;38192;50.102;19.884;2022-07-21T03:21:58;18.10;99.90
52231;DHT22;38192;50.102;19.884;2022-07-21T03:24:24;18.10;99.90
52231;DHT22;38192;50.102;19.884;2022-07-21T03:26:50;18.10;99.90
52231;DHT22;38192;50.102;19.884;2022-07-21T03:29:15;18.00;99.90
52231;DHT22;38192;50.102;19.884;2022-07-21T03:31:41;18.00;99.90
52231;DHT22;38192;50.102;19.884;2022-07-21T03:34:07;18.00;99.90
52231;DHT22;38192;50.102;19.884;2022-07-21T03:36:33;18.00;99.90
52231;DHT22;38192;50.102;19.884;2022-07-21T03:38:58;18.00;99.90
52231;DHT22;38192;50.102;19.884;2022-07-21T03:41:24;18.10;99.90
52231;DHT22;38192;50.102;19.884;2022-07-21T03:43:50;18.10;99.90
52231;DHT22;38192;50.102;19.884;2022-07-21T03:46:15;18.10;99.90
52231;DHT22;38192;50.102;19.884;2022-07-21T03:48:41;18.10;99.90
52231;DHT22;38192;50.102;19.884;2022-07-21T03:51:07;18.10;99.90
52231;DHT22;38192;50.102;19.884;2022-07-21T03:53:34;18.20;99.90
52231;DHT22;38192;50.102;19.884;2022-07-21T03:55:59;18.20;99.90
52231;DHT22;38192;50.102;19.884;2022-07-21T03:58:25;18.30;99.90
52231;DHT22;38192;50.102;19.884;2022-07-21T04:00:51;18.30;99.90
52231;DHT22;38192;50.102;19.884;2022-07-21T04:03:16;18.40;99.90
52231;DHT22;38192;50.102;19.884;2022-07-21T04:05:42;18.40;99.90
52231;DHT22;38192;50.102;19.884;2022-07-21T04:08:09;18.50;99.90
52231;DHT22;38192;50.102;19.884;2022-07-21T04:10:36;18.60;99.90
52231;DHT22;38192;50.102;19.884;2022-07-21T04:13:03;18.70;99.90
52231;DHT22;38192;50.102;19.884;2022-07-21T04:15:29;18.80;99.90
52231;DHT22;38192;50.102;19.884;2022-07-21T04:17:54;18.90;99.90
52231;DHT22;38192;50.102;19.884;2022-07-21T04:20:20;19.00;99.90
52231;DHT22;38192;50.102;19.884;2022-07-21T04:22:46;19.10;99.90
52231;DHT22;38192;50.102;19.884;2022-07-21T04:25:13;19.20;99.90
52231;DHT22;38192;50.102;19.884;2022-07-21T04:27:39;19.30;99.90
52231;DHT22;38192;50.102;19.884;2022-07-21T04:30:05;19.40;99.90
52231;DHT22;38192;50.102;19.884;2022-07-21T04:32:32;19.50;99.90
52231;DHT22;38192;50.102;19.884;2022-07-21T04:34:57;19.60;99.90
52231;DHT22;38192;50.102;19.884;2022-07-21T04:37:23;19.70;99.90
52231;DHT22;38192;50.102;19.884;2022-07-21T04:39:49;19.80;99.90
52231;DHT22;38192;50.102;19.884;2022-07-21T04:42:14;20.00;99.90
52231;DHT22;38192;50.102;19.884;2022-07-21T04:44:40;20.10;99.90
52231;DHT22;38192;50.102;19.884;2022-07-21T04:47:06;20.30;99.90
52231;DHT22;38192;50.102;19.884;2022-07-21T04:49:31;20.40;99.90
52231;DHT22;38192;50.102;19.884;2022-07-21T04:51:57;20.50;99.90
52231;DHT22;38192;50.102;19.884;2022-07-21T04:54:23;20.70;99.90
52231;DHT22;38192;50.102;19.884;2022-07-21T04:56:48;20.80;99.90
52231;DHT22;38192;50.102;19.884;2022-07-21T04:59:14;20.90;99.90
52231;DHT22;38192;50.102;19.884;2022-07-21T05:01:40;21.00;99.90
52231;DHT22;38192;50.102;19.884;2022-07-21T05:04:06;21.10;99.90
52231;DHT22;38192;50.102;19.884;2022-07-21T05:06:32;21.30;99.90
52231;DHT22;38192;50.102;19.884;2022-07-21T05:08:58;21.40;99.90
52231;DHT22;38192;50.102;19.884;2022-07-21T05:11:23;21.50;99.90
52231;DHT22;38192;50.102;19.884;2022-07-21T05:13:49;21.60;99.90
52231;DHT22;38192;50.102;19.884;2022-07-21T05:16:15;21.70;99.90
52231;DHT22;38192;50.102;19.884;2022-07-21T05:18:41;21.80;99.90
52231;DHT22;38192;50.102;19.884;2022-07-21T05:21:06;21.90;99.90
52231;DHT22;38192;50.102;19.884;2022-07-21T05:23:32;21.90;99.90
52231;DHT22;38192;50.102;19.884;2022-07-21T05:25:58;22.10;99.90
52231;DHT22;38192;50.102;19.884;2022-07-21T05:28:23;22.10;99.90
52231;DHT22;38192;50.102;19.884;2022-07-21T05:30:49;22.20;99.90
52231;DHT22;38192;50.102;19.884;2022-07-21T05:33:15;22.20;99.90
52231;DHT22;38192;50.102;19.884;2022-07-21T05:35:40;22.30;99.90
52231;DHT22;38192;50.102;19.884;2022-07-21T05:38:06;22.40;99.90
52231;DHT22;38192;50.102;19.884;2022-07-21T05:40:32;22.50;99.90
52231;DHT22;38192;50.102;19.884;2022-07-21T05:42:57;22.60;99.90
52231;DHT22;38192;50.102;19.884;2022-07-21T05:45:23;22.70;99.90
52231;DHT22;38192;50.102;19.884;2022-07-21T05:47:49;22.80;99.90
52231;DHT22;38192;50.102;19.884;2022-07-21T05:50:14;22.80;99.90
52231;DHT22;38192;50.102;19.884;2022-07-21T05:52:40;22.90;99.90
52231;DHT22;38192;50.102;19.884;2022-07-21T05:55:06;23.00;99.90
52231;DHT22;38192;50.102;19.884;2022-07-21T05:57:32;23.00;99.90
52231;DHT22;38192;50.102;19.884;2022-07-21T05:59:58;23.20;99.90
52231;DHT22;38192;50.102;19.884;2022-07-21T06:02:24;23.30;99.90
52231;DHT22;38192;50.102;19.884;2022-07-21T06:04:50;23.30;99.90
52231;DHT22;38192;50.102;19.884;2022-07-21T06:07:16;23.40;99.90
52231;DHT22;38192;50.102;19.884;2022-07-21T06:09:42;23.50;99.90
52231;DHT22;38192;50.102;19.884;2022-07-21T06:12:07;23.60;99.90
52231;DHT22;38192;50.102;19.884;2022-07-21T06:14:33;23.70;99.90
52231;DHT22;38192;50.102;19.884;2022-07-21T06:16:59;23.80;99.90
52231;DHT22;38192;50.102;19.884;2022-07-21T06:19:25;23.80;99.90
52231;DHT22;38192;50.102;19.884;2022-07-21T06:21:50;23.90;99.90
52231;DHT22;38192;50.102;19.884;2022-07-21T06:24:16;24.00;99.90
52231;DHT22;38192;50.102;19.884;2022-07-21T06:26:42;24.10;99.90
52231;DHT22;38192;50.102;19.884;2022-07-21T06:29:07;24.20;99.40
52231;DHT22;38192;50.102;19.884;2022-07-21T06:31:33;24.30;98.00
52231;DHT22;38192;50.102;19.884;2022-07-21T06:33:59;24.30;97.80
52231;DHT22;38192;50.102;19.884;2022-07-21T06:36:25;24.40;97.40
52231;DHT22;38192;50.102;19.884;2022-07-21T06:38:50;24.50;97.00
52231;DHT22;38192;50.102;19.884;2022-07-21T06:41:16;24.60;96.70
52231;DHT22;38192;50.102;19.884;2022-07-21T06:43:41;24.70;96.80
52231;DHT22;38192;50.102;19.884;2022-07-21T06:46:07;24.70;96.60
52231;DHT22;38192;50.102;19.884;2022-07-21T06:48:33;24.80;96.60
52231;DHT22;38192;50.102;19.884;2022-07-21T06:50:59;24.90;96.60
52231;DHT22;38192;50.102;19.884;2022-07-21T06:53:26;25.00;96.20
52231;DHT22;38192;50.102;19.884;2022-07-21T06:55:52;25.10;95.50
52231;DHT22;38192;50.102;19.884;2022-07-21T06:58:18;25.20;95.50
52231;DHT22;38192;50.102;19.884;2022-07-21T07:00:45;25.30;95.40
52231;DHT22;38192;50.102;19.884;2022-07-21T07:03:11;25.30;94.80
52231;DHT22;38192;50.102;19.884;2022-07-21T07:05:37;25.50;93.80
52231;DHT22;38192;50.102;19.884;2022-07-21T07:08:03;25.50;93.40
52231;DHT22;38192;50.102;19.884;2022-07-21T07:10:29;25.60;92.80
52231;DHT22;38192;50.102;19.884;2022-07-21T07:12:54;25.70;92.50
52231;DHT22;38192;50.102;19.884;2022-07-21T07:15:21;25.80;92.00
52231;DHT22;38192;50.102;19.884;2022-07-21T07:17:47;26.00;91.30
52231;DHT22;38192;50.102;19.884;2022-07-21T07:20:13;26.20;91.90
52231;DHT22;38192;50.102;19.884;2022-07-21T07:22:38;26.60;92.30
52231;DHT22;38192;50.102;19.884;2022-07-21T07:25:04;27.10;90.10
52231;DHT22;38192;50.102;19.884;2022-07-21T07:27:30;27.60;86.60
52231;DHT22;38192;50.102;19.884;2022-07-21T07:29:56;28.20;82.80
52231;DHT22;38192;50.102;19.884;2022-07-21T07:32:21;28.80;79.50
52231;DHT22;38192;50.102;19.884;2022-07-21T07:34:47;29.40;76.40
52231;DHT22;38192;50.102;19.884;2022-07-21T07:37:13;30.00;74.60
52231;DHT22;38192;50.102;19.884;2022-07-21T07:39:38;30.60;69.70
52231;DHT22;38192;50.102;19.884;2022-07-21T07:42:06;31.10;68.30
52231;DHT22;38192;50.102;19.884;2022-07-21T07:44:31;31.60;65.10
52231;DHT22;38192;50.102;19.884;2022-07-21T07:46:57;32.10;63.90
52231;DHT22;38192;50.102;19.884;2022-07-21T07:49:23;32.50;62.00
52231;DHT22;38192;50.102;19.884;2022-07-21T07:51:48;32.90;60.30
52231;DHT22;38192;50.102;19.884;2022-07-21T07:54:14;33.30;59.60
52231;DHT22;38192;50.102;19.884;2022-07-21T07:56:40;33.70;57.70
52231;DHT22;38192;50.102;19.884;2022-07-21T07:59:07;34.00;56.60
52231;DHT22;38192;50.102;19.884;2022-07-21T08:01:32;34.40;56.00
52231;DHT22;38192;50.102;19.884;2022-07-21T08:03:58;34.80;55.50
52231;DHT22;38192;50.102;19.884;2022-07-21T08:06:24;35.10;55.10
52231;DHT22;38192;50.102;19.884;2022-07-21T08:08:49;35.50;54.00
52231;DHT22;38192;50.102;19.884;2022-07-21T08:11:15;35.70;53.10
52231;DHT22;38192;50.102;19.884;2022-07-21T08:13:41;36.00;52.30
52231;DHT22;38192;50.102;19.884;2022-07-21T08:16:07;36.30;52.10
52231;DHT22;38192;50.102;19.884;2022-07-21T08:18:33;36.60;51.60
52231;DHT22;38192;50.102;19.884;2022-07-21T08:20:59;36.90;50.20
52231;DHT22;38192;50.102;19.884;2022-07-21T08:23:24;37.10;49.60
52231;DHT22;38192;50.102;19.884;2022-07-21T08:25:50;37.40;48.60
52231;DHT22;38192;50.102;19.884;2022-07-21T08:28:16;37.50;48.00
52231;DHT22;38192;50.102;19.884;2022-07-21T08:30:42;37.60;47.80
52231;DHT22;38192;50.102;19.884;2022-07-21T08:33:08;37.70;47.70
52231;DHT22;38192;50.102;19.884;2022-07-21T08:35:33;37.70;48.30
52231;DHT22;38192;50.102;19.884;2022-07-21T08:38:00;37.80;47.10
52231;DHT22;38192;50.102;19.884;2022-07-21T08:40:28;37.80;47.00
52231;DHT22;38192;50.102;19.884;2022-07-21T08:42:54;37.80;46.70
52231;DHT22;38192;50.102;19.884;2022-07-21T08:45:20;37.80;46.50
52231;DHT22;38192;50.102;19.884;2022-07-21T08:47:54;37.80;46.70
52231;DHT22;38192;50.102;19.884;2022-07-21T08:50:23;37.80;47.30
52231;DHT22;38192;50.102;19.884;2022-07-21T08:52:49;37.90;46.70
52231;DHT22;38192;50.102;19.884;2022-07-21T08:55:15;37.90;46.30
52231;DHT22;38192;50.102;19.884;2022-07-21T08:57:41;37.80;46.50
52231;DHT22;38192;50.102;19.884;2022-07-21T09:00:08;37.90;46.10
52231;DHT22;38192;50.102;19.884;2022-07-21T09:02:34;37.90;46.40
52231;DHT22;38192;50.102;19.884;2022-07-21T09:05:00;37.90;46.40
52231;DHT22;38192;50.102;19.884;2022-07-21T09:07:27;38.00;46.20
52231;DHT22;38192;50.102;19.884;2022-07-21T09:09:56;38.10;45.40
52231;DHT22;38192;50.102;19.884;2022-07-21T09:12:22;38.10;45.00
52231;DHT22;38192;50.102;19.884;2022-07-21T09:14:48;38.20;44.50
52231;DHT22;38192;50.102;19.884;2022-07-21T09:17:16;38.00;44.10
52231;DHT22;38192;50.102;19.884;2022-07-21T09:19:43;38.10;44.60
52231;DHT22;38192;50.102;19.884;2022-07-21T09:22:12;37.90;44.40
52231;DHT22;38192;50.102;19.884;2022-07-21T09:24:38;37.90;44.40
52231;DHT22;38192;50.102;19.884;2022-07-21T09:27:18;37.80;43.80
52231;DHT22;38192;50.102;19.884;2022-07-21T09:29:52;37.60;44.10
52231;DHT22;38192;50.102;19.884;2022-07-21T09:32:28;37.50;44.60
52231;DHT22;38192;50.102;19.884;2022-07-21T09:37:21;37.20;44.50
52231;DHT22;38192;50.102;19.884;2022-07-21T09:42:30;36.70;44.80
52231;DHT22;38192;50.102;19.884;2022-07-21T09:44:57;36.60;45.20
52231;DHT22;38192;50.102;19.884;2022-07-21T09:47:23;36.40;44.80
52231;DHT22;38192;50.102;19.884;2022-07-21T09:49:49;36.20;45.20
52231;DHT22;38192;50.102;19.884;2022-07-21T09:52:19;36.10;45.60
52231;DHT22;38192;50.102;19.884;2022-07-21T09:54:45;36.00;46.50
52231;DHT22;38192;50.102;19.884;2022-07-21T09:57:11;35.90;46.20
52231;DHT22;38192;50.102;19.884;2022-07-21T09:59:37;35.80;45.60
52231;DHT22;38192;50.102;19.884;2022-07-21T10:02:04;35.70;46.10
52231;DHT22;38192;50.102;19.884;2022-07-21T10:04:29;35.60;46.20
52231;DHT22;38192;50.102;19.884;2022-07-21T10:06:55;35.60;46.40
52231;DHT22;38192;50.102;19.884;2022-07-21T10:09:22;35.60;46.20
52231;DHT22;38192;50.102;19.884;2022-07-21T10:11:48;35.50;45.60
52231;DHT22;38192;50.102;19.884;2022-07-21T10:14:13;35.60;45.50
52231;DHT22;38192;50.102;19.884;2022-07-21T10:16:39;35.50;45.90
52231;DHT22;38192;50.102;19.884;2022-07-21T10:21:51;35.50;46.20
52231;DHT22;38192;50.102;19.884;2022-07-21T10:24:19;35.50;45.70
52231;DHT22;38192;50.102;19.884;2022-07-21T10:27:05;35.50;45.80
52231;DHT22;38192;50.102;19.884;2022-07-21T10:32:15;35.50;45.90
52231;DHT22;38192;50.102;19.884;2022-07-21T10:34:41;35.50;45.70
52231;DHT22;38192;50.102;19.884;2022-07-21T10:37:08;35.50;45.40
52231;DHT22;38192;50.102;19.884;2022-07-21T10:39:34;35.50;46.20
52231;DHT22;38192;50.102;19.884;2022-07-21T10:42:00;35.50;46.30
52231;DHT22;38192;50.102;19.884;2022-07-21T10:44:38;35.50;46.40
52231;DHT22;38192;50.102;19.884;2022-07-21T10:57:38;35.60;44.90
52231;DHT22;38192;50.102;19.884;2022-07-21T11:02:50;35.50;44.80
52231;DHT22;38192;50.102;19.884;2022-07-21T11:05:16;35.60;44.70
52231;DHT22;38192;50.102;19.884;2022-07-21T11:10:26;35.50;44.30
52231;DHT22;38192;50.102;19.884;2022-07-21T11:12:55;35.50;44.30
52231;DHT22;38192;50.102;19.884;2022-07-21T11:18:06;35.50;43.20
52231;DHT22;38192;50.102;19.884;2022-07-21T11:20:33;35.70;43.20
52231;DHT22;38192;50.102;19.884;2022-07-21T11:22:58;35.70;43.70
52231;DHT22;38192;50.102;19.884;2022-07-21T11:25:29;35.80;44.20
52231;DHT22;38192;50.102;19.884;2022-07-21T11:27:54;35.90;43.90
52231;DHT22;38192;50.102;19.884;2022-07-21T11:30:20;36.00;43.50
52231;DHT22;38192;50.102;19.884;2022-07-21T11:32:47;36.10;43.70
52231;DHT22;38192;50.102;19.884;2022-07-21T11:35:13;36.10;43.30
52231;DHT22;38192;50.102;19.884;2022-07-21T11:37:43;36.00;43.40
52231;DHT22;38192;50.102;19.884;2022-07-21T11:40:13;36.00;43.60
52231;DHT22;38192;50.102;19.884;2022-07-21T11:42:39;36.10;42.60
52231;DHT22;38192;50.102;19.884;2022-07-21T11:45:05;36.10;42.00
52231;DHT22;38192;50.102;19.884;2022-07-21T11:47:31;36.10;42.20
52231;DHT22;38192;50.102;19.884;2022-07-21T11:49:58;36.20;42.80
52231;DHT22;38192;50.102;19.884;2022-07-21T11:52:28;36.10;43.20
52231;DHT22;38192;50.102;19.884;2022-07-21T11:54:54;36.10;42.90
52231;DHT22;38192;50.102;19.884;2022-07-21T11:57:21;36.00;42.60
52231;DHT22;38192;50.102;19.884;2022-07-21T11:59:48;36.00;42.40
52231;DHT22;38192;50.102;19.884;2022-07-21T12:02:18;36.00;41.90
52231;DHT22;38192;50.102;19.884;2022-07-21T12:04:45;36.10;41.90
52231;DHT22;38192;50.102;19.884;2022-07-21T12:09:37;36.10;41.60
52231;DHT22;38192;50.102;19.884;2022-07-21T12:12:03;36.10;41.10
52231;DHT22;38192;50.102;19.884;2022-07-21T12:14:38;36.20;41.70
52231;DHT22;38192;50.102;19.884;2022-07-21T12:17:06;36.20;41.80
52231;DHT22;38192;50.102;19.884;2022-07-21T12:19:32;36.40;42.10
52231;DHT22;38192;50.102;19.884;2022-07-21T12:22:00;36.40;42.20
52231;DHT22;38192;50.102;19.884;2022-07-21T12:27:11;36.40;42.50
52231;DHT22;38192;50.102;19.884;2022-07-21T12:29:38;36.40;42.60
52231;DHT22;38192;50.102;19.884;2022-07-21T12:32:04;36.40;42.50
52231;DHT22;38192;50.102;19.884;2022-07-21T12:34:30;36.30;42.50
52231;DHT22;38192;50.102;19.884;2022-07-21T12:36:56;36.30;42.90
52231;DHT22;38192;50.102;19.884;2022-07-21T12:39:26;36.30;43.30
52231;DHT22;38192;50.102;19.884;2022-07-21T12:42:13;36.30;43.00
52231;DHT22;38192;50.102;19.884;2022-07-21T12:44:52;36.30;43.00
52231;DHT22;38192;50.102;19.884;2022-07-21T12:47:21;36.30;42.80
52231;DHT22;38192;50.102;19.884;2022-07-21T12:52:23;36.20;42.50
52231;DHT22;38192;50.102;19.884;2022-07-21T12:54:51;36.10;42.70
52231;DHT22;38192;50.102;19.884;2022-07-21T12:57:18;36.10;43.00
52231;DHT22;38192;50.102;19.884;2022-07-21T12:59:44;36.00;42.50
52231;DHT22;38192;50.102;19.884;2022-07-21T13:02:10;35.90;42.60
52231;DHT22;38192;50.102;19.884;2022-07-21T13:04:36;35.90;42.50
52231;DHT22;38192;50.102;19.884;2022-07-21T13:07:02;35.90;42.80
52231;DHT22;38192;50.102;19.884;2022-07-21T13:09:30;35.90;42.60
52231;DHT22;38192;50.102;19.884;2022-07-21T13:11:55;35.80;42.70
52231;DHT22;38192;50.102;19.884;2022-07-21T13:14:23;35.80;43.10
52231;DHT22;38192;50.102;19.884;2022-07-21T13:16:49;35.80;43.30
52231;DHT22;38192;50.102;19.884;2022-07-21T13:19:17;35.80;43.00
52231;DHT22;38192;50.102;19.884;2022-07-21T13:21:42;35.80;43.40
52231;DHT22;38192;50.102;19.884;2022-07-21T13:24:10;35.80;43.40
52231;DHT22;38192;50.102;19.884;2022-07-21T13:26:36;35.80;42.70
52231;DHT22;38192;50.102;19.884;2022-07-21T13:29:05;35.70;43.00
52231;DHT22;38192;50.102;19.884;2022-07-21T13:31:36;35.70;42.40
52231;DHT22;38192;50.102;19.884;2022-07-21T13:34:05;35.70;43.00
52231;DHT22;38192;50.102;19.884;2022-07-21T13:36:36;35.70;43.80
52231;DHT22;38192;50.102;19.884;2022-07-21T13:39:06;35.60;43.00
52231;DHT22;38192;50.102;19.884;2022-07-21T13:41:32;35.60;42.50
52231;DHT22;38192;50.102;19.884;2022-07-21T13:43:59;35.50;42.60
52231;DHT22;38192;50.102;19.884;2022-07-21T13:46:26;35.50;42.80
52231;DHT22;38192;50.102;19.884;2022-07-21T13:48:52;35.40;43.00
52231;DHT22;38192;50.102;19.884;2022-07-21T13:51:19;35.40;43.10
52231;DHT22;38192;50.102;19.884;2022-07-21T13:53:46;35.40;42.10
52231;DHT22;38192;50.102;19.884;2022-07-21T13:56:13;35.40;42.00
52231;DHT22;38192;50.102;19.884;2022-07-21T13:58:39;35.40;41.80
52231;DHT22;38192;50.102;19.884;2022-07-21T14:01:05;35.40;42.10
52231;DHT22;38192;50.102;19.884;2022-07-21T14:03:33;35.40;42.20
52231;DHT22;38192;50.102;19.884;2022-07-21T14:06:00;35.30;42.50
52231;DHT22;38192;50.102;19.884;2022-07-21T14:08:26;35.30;42.60
52231;DHT22;38192;50.102;19.884;2022-07-21T14:10:52;35.20;42.80
52231;DHT22;38192;50.102;19.884;2022-07-21T14:13:18;35.20;42.60
52231;DHT22;38192;50.102;19.884;2022-07-21T14:15:45;35.20;42.30
52231;DHT22;38192;50.102;19.884;2022-07-21T14:18:11;35.10;42.60
52231;DHT22;38192;50.102;19.884;2022-07-21T14:20:37;35.10;42.80
52231;DHT22;38192;50.102;19.884;2022-07-21T14:23:03;35.10;43.20
52231;DHT22;38192;50.102;19.884;2022-07-21T14:25:30;35.20;43.30
52231;DHT22;38192;50.102;19.884;2022-07-21T14:27:56;35.30;42.60
52231;DHT22;38192;50.102;19.884;2022-07-21T14:30:23;35.30;41.60
52231;DHT22;38192;50.102;19.884;2022-07-21T14:32:50;35.30;41.10
52231;DHT22;38192;50.102;19.884;2022-07-21T14:35:17;35.30;41.50
52231;DHT22;38192;50.102;19.884;2022-07-21T14:37:45;35.40;41.20
52231;DHT22;38192;50.102;19.884;2022-07-21T14:40:11;35.40;41.10
52231;DHT22;38192;50.102;19.884;2022-07-21T14:42:38;35.30;41.50
52231;DHT22;38192;50.102;19.884;2022-07-21T14:45:04;35.20;42.00
52231;DHT22;38192;50.102;19.884;2022-07-21T14:47:34;35.20;42.10
52231;DHT22;38192;50.102;19.884;2022-07-21T14:49:59;35.20;42.30
52231;DHT22;38192;50.102;19.884;2022-07-21T14:52:26;35.10;42.50
52231;DHT22;38192;50.102;19.884;2022-07-21T14:54:52;35.00;42.50
52231;DHT22;38192;50.102;19.884;2022-07-21T14:57:18;35.00;42.40
52231;DHT22;38192;50.102;19.884;2022-07-21T14:59:44;34.80;41.90
52231;DHT22;38192;50.102;19.884;2022-07-21T15:02:10;34.80;42.10
52231;DHT22;38192;50.102;19.884;2022-07-21T15:04:36;34.70;42.30
52231;DHT22;38192;50.102;19.884;2022-07-21T15:07:02;34.60;42.50
52231;DHT22;38192;50.102;19.884;2022-07-21T15:09:28;34.50;42.90
52231;DHT22;38192;50.102;19.884;2022-07-21T15:11:55;34.50;43.20
52231;DHT22;38192;50.102;19.884;2022-07-21T15:14:21;34.50;43.50
52231;DHT22;38192;50.102;19.884;2022-07-21T15:16:47;34.40;43.50
52231;DHT22;38192;50.102;19.884;2022-07-21T15:19:13;34.40;43.70
52231;DHT22;38192;50.102;19.884;2022-07-21T15:21:39;34.40;44.00
52231;DHT22;38192;50.102;19.884;2022-07-21T15:24:06;34.30;43.90
52231;DHT22;38192;50.102;19.884;2022-07-21T15:26:32;34.30;44.10
52231;DHT22;38192;50.102;19.884;2022-07-21T15:28:59;34.30;44.10
52231;DHT22;38192;50.102;19.884;2022-07-21T15:31:25;34.30;43.90
52231;DHT22;38192;50.102;19.884;2022-07-21T15:33:51;34.20;43.80
52231;DHT22;38192;50.102;19.884;2022-07-21T15:36:19;34.20;44.20
52231;DHT22;38192;50.102;19.884;2022-07-21T15:38:44;34.20;44.70
52231;DHT22;38192;50.102;19.884;2022-07-21T15:41:12;34.20;44.90
52231;DHT22;38192;50.102;19.884;2022-07-21T15:43:37;34.10;44.50
52231;DHT22;38192;50.102;19.884;2022-07-21T15:46:03;34.10;44.50
52231;DHT22;38192;50.102;19.884;2022-07-21T15:48:29;34.00;44.60